Time;durP1;ratioP1;P1;durP2;ratioP2;P2;SDS_P1;SDS_P2;PMS_P1;PMS_P2;Temp;Humidity;BMP_temperature;BMP_pressure;BME280_temperature;BME280_humidity;BME280_pressure;Samples;Min_cycle;Max_cycle;Signal;HPM_P1;HPM_P2
2022/01/08 00:02:14;;;;;;;2.43;1.17;;;4.90;99.90;;;;;;4993214;28;20220;-59
2022/01/08 00:04:40;;;;;;;2.07;1.23;;;4.90;99.90;;;;;;4993072;28;20619;-60
2022/01/08 00:07:07;;;;;;;3.00;1.50;;;5.00;99.90;;;;;;4993272;28;20270;-59
2022/01/08 00:09:35;;;;;;;3.43;1.20;;;5.00;99.90;;;;;;4993092;28;20314;-60
2022/01/08 00:12:02;;;;;;;1.73;1.30;;;5.00;99.90;;;;;;4992896;28;20207;-59
2022/01/08 00:14:29;;;;;;;2.50;1.60;;;4.80;99.90;;;;;;4993037;28;20778;-59
2022/01/08 00:16:58;;;;;;;2.17;1.40;;;4.70;99.90;;;;;;4993206;28;20203;-59
2022/01/08 00:19:25;;;;;;;1.97;1.30;;;4.60;99.90;;;;;;5021840;23;20235;-55
2022/01/08 00:21:51;;;;;;;2.10;1.53;;;4.60;99.90;;;;;;5004528;28;20210;-55
2022/01/08 00:24:18;;;;;;;3.13;1.60;;;4.50;99.90;;;;;;5012756;28;20636;-56
2022/01/08 00:26:46;;;;;;;2.90;1.50;;;4.40;99.90;;;;;;5012668;28;20233;-55
2022/01/08 00:29:13;;;;;;;2.23;1.60;;;4.40;99.90;;;;;;5012674;28;20231;-55
2022/01/08 00:31:40;;;;;;;1.80;1.40;;;4.40;99.90;;;;;;5012697;28;20265;-55
2022/01/08 00:34:07;;;;;;;3.17;1.50;;;4.40;99.90;;;;;;5012591;28;20207;-55
2022/01/08 00:36:34;;;;;;;3.13;1.60;;;4.40;99.90;;;;;;5011797;28;20253;-55
2022/01/08 00:39:00;;;;;;;2.17;1.37;;;4.40;99.90;;;;;;5012262;28;20621;-56
2022/01/08 00:41:27;;;;;;;2.40;1.70;;;4.40;99.90;;;;;;5011987;28;20218;-56
2022/01/08 00:43:55;;;;;;;3.40;1.30;;;4.50;99.90;;;;;;5012554;28;20218;-55
2022/01/08 00:46:22;;;;;;;2.20;1.40;;;4.50;99.90;;;;;;5012145;28;20227;-56
2022/01/08 00:48:49;;;;;;;2.23;1.20;;;4.60;99.90;;;;;;5012339;28;20231;-55
2022/01/08 00:51:16;;;;;;;2.90;1.17;;;4.80;99.90;;;;;;5012123;28;20203;-56
2022/01/08 00:53:43;;;;;;;3.40;1.20;;;4.90;99.90;;;;;;5012231;28;20214;-56
2022/01/08 00:56:09;;;;;;;3.00;1.20;;;5.00;99.90;;;;;;5012136;28;20218;-56
2022/01/08 00:58:36;;;;;;;2.77;1.73;;;5.10;99.90;;;;;;5012297;28;20281;-55
2022/01/08 01:01:04;;;;;;;1.80;0.93;;;5.10;99.90;;;;;;5012117;28;20236;-56
2022/01/08 01:03:31;;;;;;;1.73;1.13;;;5.30;99.90;;;;;;5012359;28;20342;-56
2022/01/08 01:05:57;;;;;;;1.90;1.30;;;5.20;99.90;;;;;;5012092;28;20219;-56
2022/01/08 01:08:24;;;;;;;2.33;1.03;;;5.20;99.90;;;;;;5011965;28;20234;-56
2022/01/08 01:10:51;;;;;;;2.93;1.20;;;5.30;99.90;;;;;;5012386;28;20218;-56
2022/01/08 01:13:19;;;;;;;2.53;1.60;;;5.30;99.90;;;;;;5012300;28;20206;-56
2022/01/08 01:15:45;;;;;;;1.70;1.17;;;5.30;99.90;;;;;;5012425;28;20199;-56
2022/01/08 01:18:13;;;;;;;4.50;1.30;;;5.40;99.90;;;;;;5012166;28;20207;-56
2022/01/08 01:20:40;;;;;;;2.47;1.10;;;5.50;99.90;;;;;;5012916;28;20215;-56
2022/01/08 01:23:11;;;;;;;3.10;1.00;;;5.60;99.90;;;;;;5012000;28;20203;-56
2022/01/08 01:25:41;;;;;;;1.30;1.00;;;5.60;99.90;;;;;;5012473;28;20325;-56
2022/01/08 01:28:21;;;;;;;1.70;1.00;;;5.50;99.90;;;;;;5012359;28;20213;-57
2022/01/08 01:42:08;;;;;;;2.83;1.30;;;5.70;99.90;;;;;;5011722;28;20209;-57
2022/01/08 01:47:30;;;;;;;2.23;1.23;;;6.00;99.90;;;;;;5013577;28;20233;-56
2022/01/08 01:49:58;;;;;;;3.33;1.20;;;6.00;99.90;;;;;;5015348;28;20740;-57
2022/01/08 01:52:25;;;;;;;1.50;1.07;;;6.10;99.90;;;;;;5015698;28;20565;-56
2022/01/08 01:54:51;;;;;;;1.67;1.10;;;6.10;99.90;;;;;;5015544;28;20257;-56
2022/01/08 01:57:20;;;;;;;1.73;1.00;;;6.10;99.90;;;;;;5015528;28;20203;-56
2022/01/08 01:59:47;;;;;;;2.73;1.90;;;6.00;99.90;;;;;;5015105;28;20714;-56
2022/01/08 02:02:14;;;;;;;4.00;2.20;;;5.80;99.90;;;;;;5015183;28;20589;-57
2022/01/08 02:04:41;;;;;;;2.77;1.80;;;5.70;99.90;;;;;;5015189;28;20211;-57
2022/01/08 02:07:09;;;;;;;1.43;1.13;;;5.60;99.90;;;;;;5015330;28;20235;-56
2022/01/08 02:09:39;;;;;;;12.17;8.83;;;5.40;99.90;;;;;;5015265;28;20231;-56
2022/01/08 02:12:07;;;;;;;1.83;1.37;;;5.40;99.90;;;;;;5015063;28;20217;-56
2022/01/08 02:14:36;;;;;;;4.53;1.30;;;5.50;99.90;;;;;;5015089;28;20239;-57
2022/01/08 02:17:05;;;;;;;2.60;1.33;;;5.50;99.90;;;;;;5014980;28;20211;-56
2022/01/08 02:19:31;;;;;;;1.70;1.50;;;5.60;99.90;;;;;;5015175;28;20321;-57
2022/01/08 02:22:01;;;;;;;1.93;1.37;;;5.60;99.90;;;;;;5014851;28;20207;-56
2022/01/08 02:24:28;;;;;;;4.33;1.57;;;5.60;99.90;;;;;;5014999;28;20207;-56
2022/01/08 02:26:56;;;;;;;3.33;1.60;;;5.70;99.90;;;;;;5014775;28;20255;-56
2022/01/08 02:29:24;;;;;;;2.33;1.20;;;5.70;99.90;;;;;;5014780;28;20589;-56
2022/01/08 02:31:56;;;;;;;3.00;1.30;;;5.70;99.90;;;;;;5014722;28;20628;-57
2022/01/08 02:34:24;;;;;;;2.73;1.30;;;5.70;99.90;;;;;;5014856;28;20203;-56
2022/01/08 02:36:51;;;;;;;2.10;1.40;;;5.70;99.90;;;;;;5014678;28;20234;-56
2022/01/08 02:39:19;;;;;;;2.93;1.23;;;5.70;99.90;;;;;;5014521;28;20231;-57
2022/01/08 02:41:46;;;;;;;3.23;1.43;;;5.70;99.90;;;;;;5014338;28;20222;-56
2022/01/08 02:44:14;;;;;;;3.43;1.80;;;5.70;99.90;;;;;;5014438;28;20222;-56
2022/01/08 02:46:42;;;;;;;2.20;1.50;;;5.50;99.90;;;;;;5014225;28;20230;-56
2022/01/08 02:49:09;;;;;;;2.23;1.47;;;5.60;99.90;;;;;;5014222;28;20630;-56
2022/01/08 02:51:36;;;;;;;4.20;2.03;;;5.70;99.90;;;;;;5014235;28;20207;-56
2022/01/08 02:54:07;;;;;;;1.90;1.27;;;5.70;99.90;;;;;;5014286;28;20207;-57
2022/01/08 02:56:38;;;;;;;4.77;1.30;;;5.80;99.90;;;;;;5014450;28;20247;-56
2022/01/08 02:59:05;;;;;;;3.97;2.17;;;5.90;99.90;;;;;;5013195;28;20261;-56
2022/01/08 03:01:32;;;;;;;2.73;1.30;;;5.80;99.90;;;;;;5014015;28;20214;-57
2022/01/08 03:03:59;;;;;;;2.83;1.50;;;5.90;99.90;;;;;;5014342;28;20211;-56
2022/01/08 03:06:26;;;;;;;3.03;1.70;;;5.90;99.90;;;;;;5014077;28;20225;-57
2022/01/08 03:08:52;;;;;;;3.57;1.90;;;5.90;99.90;;;;;;5013862;28;20714;-56
2022/01/08 03:11:19;;;;;;;1.93;1.23;;;6.00;99.90;;;;;;5013861;28;20211;-56
2022/01/08 03:13:47;;;;;;;2.70;1.33;;;6.00;99.90;;;;;;5014083;28;20285;-57
2022/01/08 03:16:15;;;;;;;3.47;2.20;;;6.00;99.90;;;;;;5013985;28;20203;-57
2022/01/08 03:18:41;;;;;;;3.83;1.83;;;6.10;99.90;;;;;;5013757;28;20246;-56
2022/01/08 03:21:14;;;;;;;3.10;1.50;;;6.20;99.90;;;;;;5013718;28;20207;-57
2022/01/08 03:23:47;;;;;;;2.40;1.50;;;6.10;99.90;;;;;;5013748;28;20207;-56
2022/01/08 03:26:15;;;;;;;3.17;1.40;;;6.10;99.90;;;;;;5013630;28;20227;-57
2022/01/08 03:28:42;;;;;;;2.37;1.30;;;6.10;99.90;;;;;;5013673;28;20238;-56
2022/01/08 03:31:11;;;;;;;1.90;1.40;;;6.20;99.90;;;;;;5015148;28;20210;-56
2022/01/08 03:33:37;;;;;;;4.90;2.20;;;6.10;99.90;;;;;;5013629;28;20217;-56
2022/01/08 03:36:04;;;;;;;3.10;1.50;;;6.10;99.90;;;;;;5013640;28;20210;-56
2022/01/08 03:38:32;;;;;;;1.60;1.40;;;6.10;99.90;;;;;;5013467;28;20280;-57
2022/01/08 03:40:59;;;;;;;2.70;1.33;;;6.00;99.90;;;;;;5013628;28;20210;-56
2022/01/08 03:43:26;;;;;;;2.97;1.40;;;6.00;99.90;;;;;;5013081;28;20621;-56
2022/01/08 03:45:52;;;;;;;2.70;1.30;;;6.00;99.90;;;;;;5013482;28;20547;-56
2022/01/08 03:48:28;;;;;;;2.10;1.20;;;6.10;99.90;;;;;;5013412;28;20227;-56
2022/01/08 03:50:55;;;;;;;1.60;1.10;;;6.10;99.90;;;;;;5013271;28;20296;-56
2022/01/08 03:53:21;;;;;;;1.93;1.20;;;6.20;99.90;;;;;;5013171;28;20249;-56
2022/01/08 03:55:48;;;;;;;3.00;1.47;;;6.20;99.90;;;;;;5013426;28;20206;-56
2022/01/08 03:58:15;;;;;;;1.27;1.00;;;6.20;99.90;;;;;;5013212;28;20211;-57
2022/01/08 04:00:42;;;;;;;3.00;1.30;;;6.30;99.90;;;;;;5013378;28;20566;-57
2022/01/08 04:03:08;;;;;;;2.77;1.10;;;6.30;99.90;;;;;;5012888;28;20211;-57
2022/01/08 04:05:36;;;;;;;1.93;1.13;;;6.30;99.90;;;;;;5012863;28;20214;-57
2022/01/08 04:08:03;;;;;;;1.70;0.70;;;6.20;99.90;;;;;;5012945;28;20229;-57
2022/01/08 04:10:30;;;;;;;1.23;0.97;;;6.20;99.90;;;;;;5013205;28;20214;-56
2022/01/08 04:13:03;;;;;;;2.83;1.10;;;6.20;99.90;;;;;;5012810;28;20584;-56
2022/01/08 04:15:38;;;;;;;1.53;0.80;;;6.20;99.90;;;;;;5012906;28;20206;-57
2022/01/08 04:18:06;;;;;;;2.90;1.00;;;6.10;99.90;;;;;;5012674;28;20206;-57
2022/01/08 04:20:36;;;;;;;2.20;0.60;;;6.00;99.90;;;;;;5012981;28;20210;-56
2022/01/08 04:23:04;;;;;;;3.20;0.53;;;5.90;99.90;;;;;;5012419;28;20302;-56
2022/01/08 04:25:31;;;;;;;1.13;0.63;;;5.90;99.90;;;;;;5012744;28;20715;-56
2022/01/08 04:27:58;;;;;;;1.27;0.77;;;5.90;99.90;;;;;;5012606;28;20222;-57
2022/01/08 04:30:24;;;;;;;1.23;0.90;;;6.00;99.90;;;;;;5012651;28;20207;-56
2022/01/08 04:32:51;;;;;;;1.60;0.90;;;6.10;99.90;;;;;;5012355;28;20214;-56
2022/01/08 04:35:18;;;;;;;2.20;0.93;;;6.00;99.90;;;;;;5012768;28;20226;-57
2022/01/08 04:37:44;;;;;;;1.27;0.80;;;6.00;99.90;;;;;;5012588;28;20207;-57
2022/01/08 04:40:13;;;;;;;1.67;0.83;;;6.00;99.90;;;;;;5012453;28;20230;-56
2022/01/08 04:42:40;;;;;;;1.97;1.00;;;6.10;99.90;;;;;;5012426;28;20207;-56
2022/01/08 04:45:07;;;;;;;0.93;0.70;;;6.10;99.90;;;;;;5012421;28;20207;-56
2022/01/08 04:47:34;;;;;;;1.20;0.90;;;6.10;99.90;;;;;;5012377;28;20710;-56
2022/01/08 04:50:00;;;;;;;0.90;0.77;;;6.00;99.90;;;;;;5012518;28;20231;-56
2022/01/08 04:52:27;;;;;;;1.30;1.00;;;6.00;99.90;;;;;;5012549;28;20211;-56
2022/01/08 04:54:54;;;;;;;1.77;1.10;;;6.00;99.90;;;;;;5012409;28;20203;-56
2022/01/08 04:57:22;;;;;;;1.23;0.97;;;6.00;99.90;;;;;;5012237;28;20209;-57
2022/01/08 04:59:48;;;;;;;1.37;0.70;;;6.00;99.90;;;;;;5012113;28;20226;-56
2022/01/08 05:02:15;;;;;;;1.27;1.00;;;6.10;99.90;;;;;;5012225;28;20303;-56
2022/01/08 05:04:42;;;;;;;1.90;0.77;;;6.20;99.90;;;;;;5012364;28;20206;-56
2022/01/08 05:07:09;;;;;;;2.87;1.40;;;6.10;99.90;;;;;;5012053;28;20653;-56
2022/01/08 05:09:36;;;;;;;4.50;1.77;;;6.10;99.90;;;;;;5012367;28;20237;-56
2022/01/08 05:12:03;;;;;;;2.83;1.60;;;6.10;99.90;;;;;;5011926;28;20214;-56
2022/01/08 05:14:31;;;;;;;1.63;1.13;;;6.00;99.90;;;;;;5012051;28;20207;-57
2022/01/08 05:17:00;;;;;;;1.03;0.87;;;6.00;99.90;;;;;;5012308;28;20199;-57
2022/01/08 05:19:38;;;;;;;1.30;0.97;;;6.10;99.90;;;;;;5011763;28;20277;-57
2022/01/08 05:22:07;;;;;;;1.77;1.20;;;6.10;99.90;;;;;;5013258;28;20210;-56
2022/01/08 05:24:34;;;;;;;1.03;0.93;;;6.00;99.90;;;;;;5015849;28;20211;-56
2022/01/08 05:27:02;;;;;;;1.93;1.40;;;6.20;99.90;;;;;;5016326;28;20629;-56
2022/01/08 05:29:30;;;;;;;1.87;1.10;;;6.10;99.90;;;;;;5015991;28;20341;-56
2022/01/08 05:31:57;;;;;;;1.87;0.90;;;6.00;99.90;;;;;;5015964;28;20207;-57
2022/01/08 05:34:24;;;;;;;2.13;1.20;;;5.90;99.90;;;;;;5015588;28;20265;-56
2022/01/08 05:36:50;;;;;;;1.63;0.97;;;5.80;99.90;;;;;;5015559;28;20202;-56
2022/01/08 05:39:17;;;;;;;1.47;1.20;;;5.70;99.90;;;;;;5015352;28;20583;-56
2022/01/08 05:41:44;;;;;;;0.87;0.60;;;5.70;99.90;;;;;;5015205;28;20230;-57
2022/01/08 05:44:10;;;;;;;1.60;0.87;;;5.70;99.90;;;;;;5015328;28;20214;-56
2022/01/08 05:46:43;;;;;;;2.60;1.47;;;5.60;99.90;;;;;;5015543;28;20203;-57
2022/01/08 05:49:09;;;;;;;1.03;0.93;;;5.60;99.90;;;;;;5015291;28;20223;-57
2022/01/08 05:51:36;;;;;;;1.17;0.90;;;5.60;99.90;;;;;;5015869;28;20214;-57
2022/01/08 05:54:03;;;;;;;0.83;0.83;;;5.60;99.90;;;;;;5015285;28;20211;-56
2022/01/08 05:56:30;;;;;;;1.30;1.00;;;5.60;99.90;;;;;;5016455;28;20203;-56
2022/01/08 05:58:56;;;;;;;2.60;0.83;;;5.60;99.90;;;;;;5015491;28;20769;-56
2022/01/08 06:01:23;;;;;;;1.00;0.80;;;5.60;99.90;;;;;;5015310;28;20593;-56
2022/01/08 06:03:51;;;;;;;0.83;0.63;;;5.50;99.90;;;;;;5014935;28;20210;-57
2022/01/08 06:06:18;;;;;;;0.60;0.60;;;5.50;99.90;;;;;;5015098;28;20265;-57
2022/01/08 06:08:44;;;;;;;1.03;0.70;;;5.40;99.90;;;;;;5015382;28;20237;-57
2022/01/08 06:11:11;;;;;;;0.80;0.60;;;5.40;99.90;;;;;;5015523;28;20610;-57
2022/01/08 06:13:38;;;;;;;0.97;0.70;;;5.40;99.90;;;;;;5014821;28;20582;-57
2022/01/08 06:16:05;;;;;;;0.40;0.30;;;5.40;99.90;;;;;;5015017;28;20560;-56
2022/01/08 06:18:32;;;;;;;1.17;0.80;;;5.50;99.90;;;;;;5015277;28;20726;-57
2022/01/08 06:21:00;;;;;;;0.30;0.30;;;5.30;99.90;;;;;;5014709;28;20265;-56
2022/01/08 06:23:27;;;;;;;0.40;0.40;;;5.20;99.90;;;;;;5014837;28;20261;-57
2022/01/08 06:25:54;;;;;;;1.33;0.47;;;5.10;99.90;;;;;;5015789;28;20583;-56
2022/01/08 06:28:20;;;;;;;0.60;0.40;;;5.00;99.90;;;;;;5015092;28;20227;-56
2022/01/08 06:30:47;;;;;;;0.47;0.30;;;4.90;99.90;;;;;;5015278;28;20285;-57
2022/01/08 06:33:14;;;;;;;0.30;0.20;;;4.80;99.90;;;;;;5014656;28;20298;-56
2022/01/08 06:35:41;;;;;;;0.77;0.63;;;4.50;99.90;;;;;;5015158;28;20645;-56
2022/01/08 06:38:09;;;;;;;0.57;0.30;;;4.50;99.90;;;;;;5015524;28;20230;-56
2022/01/08 06:40:36;;;;;;;0.30;0.30;;;4.50;99.90;;;;;;5014466;28;20211;-56
2022/01/08 06:43:04;;;;;;;0.60;0.60;;;4.40;99.90;;;;;;5014469;28;20218;-56
2022/01/08 06:45:31;;;;;;;1.27;0.50;;;4.40;99.90;;;;;;5014574;28;20261;-56
2022/01/08 06:47:57;;;;;;;0.80;0.50;;;4.30;99.90;;;;;;5014223;28;20227;-57
2022/01/08 06:50:27;;;;;;;0.10;0.10;;;4.20;99.90;;;;;;5014280;28;20234;-56
2022/01/08 06:52:54;;;;;;;0.20;0.20;;;4.20;99.90;;;;;;5014133;28;20206;-56
2022/01/08 06:55:22;;;;;;;0.60;0.60;;;4.20;99.90;;;;;;5014391;28;20207;-56
2022/01/08 06:57:48;;;;;;;0.63;0.63;;;4.20;99.90;;;;;;5014070;28;20553;-56
2022/01/08 07:00:15;;;;;;;2.20;0.70;;;4.20;99.90;;;;;;5014248;28;20517;-56
2022/01/08 07:02:42;;;;;;;1.23;0.80;;;4.30;99.90;;;;;;5014060;28;20211;-56
2022/01/08 07:05:10;;;;;;;1.10;0.77;;;4.30;99.90;;;;;;5014313;28;20206;-56
2022/01/08 07:07:36;;;;;;;1.30;1.20;;;4.30;99.90;;;;;;5014159;28;20219;-57
2022/01/08 07:10:04;;;;;;;1.30;1.03;;;4.30;99.90;;;;;;5014164;28;20231;-56
2022/01/08 07:12:32;;;;;;;0.87;0.77;;;4.30;99.90;;;;;;5014069;28;20210;-57
2022/01/08 07:14:59;;;;;;;1.07;0.97;;;4.30;99.90;;;;;;5015369;28;20253;-56
2022/01/08 07:17:25;;;;;;;1.23;0.87;;;4.40;99.90;;;;;;5013828;28;20693;-57
2022/01/08 07:19:52;;;;;;;1.43;0.90;;;4.30;99.90;;;;;;5013726;28;20742;-57
2022/01/08 07:22:19;;;;;;;0.87;0.80;;;4.20;99.90;;;;;;5013971;28;20207;-56
2022/01/08 07:24:45;;;;;;;0.80;0.70;;;4.20;99.90;;;;;;5013916;28;20207;-56
2022/01/08 07:27:12;;;;;;;1.67;0.90;;;4.20;99.90;;;;;;5013522;28;20235;-57
2022/01/08 07:29:40;;;;;;;0.80;0.80;;;4.30;99.90;;;;;;5013539;28;20254;-57
2022/01/08 07:32:08;;;;;;;0.90;0.80;;;4.20;99.90;;;;;;5013387;28;20211;-57
2022/01/08 07:34:34;;;;;;;0.90;0.80;;;4.10;99.90;;;;;;5013652;28;20243;-57
2022/01/08 07:37:01;;;;;;;1.60;1.20;;;4.20;99.90;;;;;;5013360;28;20695;-57
2022/01/08 07:39:28;;;;;;;1.40;1.10;;;4.30;99.90;;;;;;5013297;28;20277;-57
2022/01/08 07:41:54;;;;;;;2.00;1.60;;;4.30;99.90;;;;;;5013200;28;20207;-57
2022/01/08 07:44:21;;;;;;;1.60;1.30;;;4.40;99.90;;;;;;5013318;28;20210;-56
2022/01/08 07:46:49;;;;;;;1.37;1.27;;;4.50;99.90;;;;;;5013546;28;20269;-56
2022/01/08 07:49:16;;;;;;;1.30;1.20;;;4.50;99.90;;;;;;5013192;28;20289;-57
2022/01/08 07:51:42;;;;;;;0.93;0.67;;;4.60;99.90;;;;;;5013091;28;20222;-58
2022/01/08 07:54:09;;;;;;;2.13;1.10;;;4.50;99.90;;;;;;5013270;28;20215;-57
2022/01/08 07:56:37;;;;;;;1.40;1.23;;;4.30;99.90;;;;;;5013079;28;20213;-57
2022/01/08 07:59:04;;;;;;;1.43;1.33;;;4.20;99.90;;;;;;5012825;28;20317;-57
2022/01/08 08:01:30;;;;;;;1.70;1.50;;;4.20;99.90;;;;;;5013278;28;20220;-56
2022/01/08 08:03:58;;;;;;;1.53;1.43;;;4.20;99.90;;;;;;5012916;28;20238;-57
2022/01/08 08:06:25;;;;;;;1.70;1.60;;;4.20;99.90;;;;;;5013125;28;20309;-57
2022/01/08 08:08:52;;;;;;;2.13;1.80;;;4.30;99.90;;;;;;5012768;28;20257;-57
2022/01/08 08:11:19;;;;;;;2.60;1.80;;;4.50;99.90;;;;;;5012964;28;20214;-57
2022/01/08 08:13:45;;;;;;;2.30;1.87;;;4.50;99.90;;;;;;5012684;28;20280;-55
2022/01/08 08:16:12;;;;;;;2.10;1.77;;;4.60;99.90;;;;;;5012836;28;20207;-55
2022/01/08 08:18:39;;;;;;;5.10;3.33;;;4.80;99.90;;;;;;5012568;28;20250;-55
2022/01/08 08:21:07;;;;;;;2.77;2.00;;;4.80;99.90;;;;;;5012656;28;20211;-56
2022/01/08 08:23:33;;;;;;;2.37;1.80;;;4.90;99.90;;;;;;5012339;28;20207;-56
2022/01/08 08:26:00;;;;;;;2.63;1.50;;;4.90;99.90;;;;;;5012530;28;20218;-55
2022/01/08 08:28:29;;;;;;;5.43;1.70;;;4.90;99.90;;;;;;5012537;28;20293;-55
2022/01/08 08:30:56;;;;;;;4.43;2.00;;;4.80;99.90;;;;;;5012729;28;20298;-56
2022/01/08 08:33:22;;;;;;;2.77;2.00;;;4.90;99.90;;;;;;5012378;28;20211;-56
2022/01/08 08:35:49;;;;;;;12.60;6.07;;;5.00;99.90;;;;;;5012417;28;20211;-55
2022/01/08 08:38:17;;;;;;;4.07;2.77;;;5.10;99.90;;;;;;5012216;28;20214;-56
2022/01/08 08:40:44;;;;;;;2.37;2.00;;;5.20;99.90;;;;;;5012227;28;20932;-56
2022/01/08 08:43:10;;;;;;;3.17;1.70;;;5.30;99.90;;;;;;5012313;28;20214;-56
2022/01/08 08:45:39;;;;;;;2.63;1.67;;;5.40;99.90;;;;;;5012364;28;20203;-55
2022/01/08 08:48:05;;;;;;;2.37;2.00;;;5.40;99.90;;;;;;5012402;28;20223;-56
2022/01/08 08:50:32;;;;;;;3.23;2.30;;;5.40;99.90;;;;;;5012455;28;20249;-56
2022/01/08 08:52:59;;;;;;;3.17;1.80;;;5.60;99.90;;;;;;5011974;28;20742;-56
2022/01/08 08:55:27;;;;;;;3.50;1.70;;;5.70;99.90;;;;;;5012353;28;20608;-55
2022/01/08 08:57:54;;;;;;;2.67;1.73;;;5.80;99.90;;;;;;5015013;28;20226;-56
2022/01/08 09:00:20;;;;;;;2.80;1.70;;;5.80;99.90;;;;;;5016387;28;20222;-56
2022/01/08 09:02:47;;;;;;;2.33;1.60;;;5.80;99.90;;;;;;5015990;28;20683;-56
2022/01/08 09:05:14;;;;;;;3.23;1.50;;;5.80;99.90;;;;;;5016278;28;20203;-57
2022/01/08 09:07:40;;;;;;;6.03;2.43;;;5.90;99.90;;;;;;5015888;28;20206;-57
2022/01/08 09:10:10;;;;;;;4.27;1.53;;;5.90;99.90;;;;;;5016444;28;20223;-57
2022/01/08 09:12:38;;;;;;;3.03;1.40;;;6.00;99.90;;;;;;5015738;28;20230;-56
2022/01/08 09:15:05;;;;;;;1.97;1.40;;;6.00;99.90;;;;;;5016768;28;20211;-57
2022/01/08 09:17:33;;;;;;;2.50;1.67;;;6.00;99.90;;;;;;5016207;28;20210;-57
2022/01/08 09:19:59;;;;;;;3.07;1.50;;;6.00;99.90;;;;;;5016075;28;20611;-57
2022/01/08 09:22:27;;;;;;;4.30;1.50;;;6.00;99.90;;;;;;5015718;28;20215;-57
2022/01/08 09:24:54;;;;;;;3.17;1.40;;;5.90;99.90;;;;;;5016185;28;20207;-57
2022/01/08 09:27:21;;;;;;;1.70;1.03;;;6.00;99.90;;;;;;5015983;28;20211;-58
2022/01/08 09:29:49;;;;;;;2.07;1.40;;;6.10;99.90;;;;;;5015925;28;20230;-56
2022/01/08 09:32:17;;;;;;;5.63;3.50;;;6.10;99.90;;;;;;5015769;28;20242;-56
2022/01/08 09:34:44;;;;;;;2.67;1.40;;;6.10;99.90;;;;;;5015824;28;20207;-57
2022/01/08 09:37:11;;;;;;;3.13;1.30;;;6.10;99.90;;;;;;5015910;28;20264;-56
2022/01/08 09:39:39;;;;;;;3.23;1.60;;;6.10;99.90;;;;;;5015747;28;20297;-56
2022/01/08 09:42:08;;;;;;;3.73;1.63;;;6.10;99.90;;;;;;5015699;28;20595;-56
2022/01/08 09:44:37;;;;;;;1.50;1.20;;;6.20;99.90;;;;;;5016502;28;20210;-57
2022/01/08 09:47:05;;;;;;;2.30;1.20;;;6.30;99.90;;;;;;5016501;28;20209;-56
2022/01/08 09:49:32;;;;;;;3.20;2.10;;;6.30;99.90;;;;;;5016231;28;20238;-60
2022/01/08 09:52:00;;;;;;;6.17;1.80;;;6.50;99.90;;;;;;5015821;28;20630;-56
2022/01/08 09:54:27;;;;;;;5.00;1.60;;;6.70;99.90;;;;;;5015743;28;20239;-58
2022/01/08 09:56:54;;;;;;;4.07;2.27;;;6.80;99.90;;;;;;5015534;28;20299;-58
2022/01/08 09:59:21;;;;;;;5.67;2.30;;;6.80;99.90;;;;;;5015400;28;20222;-58
2022/01/08 10:01:55;;;;;;;6.17;2.03;;;7.10;99.90;;;;;;5015363;28;20207;-60
2022/01/08 10:04:25;;;;;;;4.37;1.80;;;7.60;99.90;;;;;;5015557;28;20297;-60
2022/01/08 10:06:52;;;;;;;5.47;1.70;;;8.00;99.90;;;;;;5015421;28;20300;-60
2022/01/08 10:09:19;;;;;;;2.83;1.43;;;8.30;99.90;;;;;;5014689;28;20277;-60
2022/01/08 10:11:50;;;;;;;5.10;1.70;;;8.40;99.90;;;;;;5015301;28;20729;-60
2022/01/08 10:14:28;;;;;;;5.00;1.67;;;8.40;99.90;;;;;;5014989;28;20207;-60
2022/01/08 10:19:41;;;;;;;4.27;1.70;;;8.50;99.90;;;;;;5014867;28;20241;-60
2022/01/08 10:22:16;;;;;;;2.70;1.80;;;8.30;99.90;;;;;;5014841;28;20258;-60
2022/01/08 10:24:42;;;;;;;3.30;1.63;;;8.20;99.90;;;;;;5014819;28;20234;-60
2022/01/08 10:27:09;;;;;;;5.97;2.03;;;8.20;99.90;;;;;;5014846;28;20211;-60
2022/01/08 10:29:36;;;;;;;4.37;2.00;;;8.20;99.90;;;;;;5014838;28;20238;-59
2022/01/08 10:32:07;;;;;;;4.60;1.97;;;8.30;99.90;;;;;;5014807;28;20218;-60
2022/01/08 10:34:34;;;;;;;4.33;2.00;;;8.30;99.90;;;;;;5015343;28;20215;-59
2022/01/08 10:37:04;;;;;;;4.60;2.03;;;8.30;99.90;;;;;;5014635;28;20601;-59
2022/01/08 10:39:34;;;;;;;2.93;1.90;;;8.30;99.90;;;;;;5014465;28;20736;-59
2022/01/08 10:42:03;;;;;;;5.03;1.90;;;8.40;99.90;;;;;;5014359;28;20301;-60
2022/01/08 10:44:33;;;;;;;3.67;1.60;;;8.50;99.90;;;;;;5014478;28;20203;-59
2022/01/08 10:47:02;;;;;;;3.70;1.60;;;8.80;99.90;;;;;;5014479;28;20597;-59
2022/01/08 10:49:31;;;;;;;7.30;1.80;;;8.90;99.90;;;;;;5014346;28;20231;-60
2022/01/08 10:51:59;;;;;;;3.53;1.73;;;8.80;99.90;;;;;;5014309;28;20209;-62
2022/01/08 10:54:28;;;;;;;4.73;2.07;;;8.90;99.90;;;;;;5014577;28;20215;-62
2022/01/08 10:56:57;;;;;;;6.00;1.50;;;8.90;99.90;;;;;;5014898;28;20215;-63
2022/01/08 10:59:24;;;;;;;6.10;2.00;;;9.00;99.90;;;;;;5014335;28;20222;-63
2022/01/08 11:01:54;;;;;;;4.00;1.73;;;9.00;99.90;;;;;;5014595;28;20203;-62
2022/01/08 11:04:36;;;;;;;5.57;2.30;;;8.90;99.90;;;;;;5013947;28;20555;-62
2022/01/08 11:07:04;;;;;;;2.53;1.40;;;8.80;99.90;;;;;;5014477;28;20207;-62
2022/01/08 11:09:34;;;;;;;2.77;1.37;;;8.60;99.90;;;;;;5014171;28;20723;-64
2022/01/08 11:12:02;;;;;;;5.10;1.77;;;8.30;99.90;;;;;;5014157;28;20207;-62
2022/01/08 11:15:22;;;;;;;5.57;1.80;;;8.10;99.90;;;;;;5013939;28;20613;-62
2022/01/08 11:17:48;;;;;;;3.90;1.50;;;8.00;99.90;;;;;;5013885;28;20221;-60
2022/01/08 11:20:17;;;;;;;3.83;1.50;;;7.70;99.90;;;;;;5013286;28;20231;-63
2022/01/08 11:22:45;;;;;;;6.07;1.60;;;7.50;99.90;;;;;;5013958;28;20223;-60
2022/01/08 11:25:15;;;;;;;6.63;1.80;;;7.30;99.90;;;;;;5013943;28;20202;-63
2022/01/08 11:27:46;;;;;;;5.30;1.80;;;7.30;99.90;;;;;;5014595;28;20207;-61
2022/01/08 11:30:19;;;;;;;2.83;1.50;;;7.40;99.90;;;;;;5014578;28;20321;-61
2022/01/08 11:32:47;;;;;;;7.40;2.27;;;7.40;99.90;;;;;;5014521;28;20211;-62
2022/01/08 11:35:15;;;;;;;5.17;2.10;;;7.30;99.90;;;;;;5014488;28;20289;-61
2022/01/08 11:37:46;;;;;;;5.33;1.87;;;7.20;99.90;;;;;;5014127;28;20210;-61
2022/01/08 11:40:16;;;;;;;4.10;1.80;;;7.10;99.90;;;;;;5014093;28;20578;-62
2022/01/08 11:42:43;;;;;;;4.90;1.53;;;7.10;99.90;;;;;;5013663;28;20211;-61
2022/01/08 11:45:12;;;;;;;1.93;1.20;;;7.20;99.90;;;;;;5014425;28;20217;-61
2022/01/08 11:47:43;;;;;;;4.00;1.20;;;7.30;99.90;;;;;;5013742;28;20269;-61
2022/01/08 11:50:12;;;;;;;4.93;1.40;;;7.30;99.90;;;;;;5013495;28;20238;-61
2022/01/08 11:52:38;;;;;;;4.90;2.23;;;7.50;99.90;;;;;;5013727;28;20213;-61
2022/01/08 11:55:06;;;;;;;6.63;1.83;;;7.70;99.90;;;;;;5013860;28;20601;-61
2022/01/08 11:57:34;;;;;;;8.00;1.90;;;7.70;99.90;;;;;;5013507;28;20217;-61
2022/01/08 12:00:02;;;;;;;2.60;1.43;;;7.70;99.90;;;;;;5013179;28;20246;-61
2022/01/08 12:02:41;;;;;;;5.10;1.40;;;7.70;99.90;;;;;;5012964;28;20273;-61
2022/01/08 12:05:09;;;;;;;3.43;1.30;;;7.70;99.90;;;;;;5013806;28;20211;-61
2022/01/08 12:07:40;;;;;;;3.43;1.40;;;7.70;99.90;;;;;;5013864;28;20217;-62
2022/01/08 12:10:15;;;;;;;5.27;2.10;;;7.80;99.90;;;;;;5013573;28;20235;-62
2022/01/08 12:12:49;;;;;;;3.80;1.50;;;8.00;99.90;;;;;;5013113;28;20217;-61
2022/01/08 12:15:18;;;;;;;5.60;1.53;;;8.40;99.90;;;;;;5013507;28;20211;-62
2022/01/08 12:17:58;;;;;;;4.63;1.70;;;8.70;99.90;;;;;;5013730;28;20202;-61
2022/01/08 12:20:46;;;;;;;2.70;1.30;;;8.80;99.90;;;;;;5037324;22;20227;-63
2022/01/08 12:23:35;;;;;;;5.67;1.60;;;8.80;99.90;;;;;;4993076;28;20225;-63
2022/01/08 12:26:05;;;;;;;5.10;1.53;;;8.80;99.90;;;;;;4988854;28;20204;-63
2022/01/08 12:28:54;;;;;;;5.90;2.13;;;8.70;99.90;;;;;;4993267;28;20564;-63
2022/01/08 12:31:42;;;;;;;2.73;1.17;;;8.40;99.90;;;;;;4993004;28;20239;-65
2022/01/08 12:34:44;;;;;;;5.30;1.60;;;7.90;99.90;;;;;;4992765;28;20235;-63
2022/01/08 12:37:12;;;;;;;5.57;1.93;;;7.80;99.90;;;;;;4993099;28;20239;-64
2022/01/08 12:39:48;;;;;;;5.30;2.40;;;7.90;99.90;;;;;;4992622;28;20649;-64
2022/01/08 12:42:38;;;;;;;3.07;1.20;;;8.10;99.90;;;;;;4992586;28;20207;-64
2022/01/08 12:45:11;;;;;;;4.33;1.90;;;8.00;99.90;;;;;;4993117;28;20207;-64
2022/01/08 12:47:47;;;;;;;4.30;1.63;;;7.90;99.90;;;;;;4992910;28;20626;-63
2022/01/08 12:50:29;;;;;;;4.70;1.40;;;7.90;99.90;;;;;;4992851;28;20231;-65
2022/01/08 12:53:13;;;;;;;3.10;1.60;;;7.80;99.90;;;;;;4992646;28;20191;-63
2022/01/08 12:55:42;;;;;;;4.97;1.70;;;8.00;99.90;;;;;;4992879;28;20208;-64
2022/01/08 12:58:16;;;;;;;3.77;1.30;;;8.00;99.90;;;;;;4992886;28;20207;-63
2022/01/08 13:00:55;;;;;;;2.97;1.20;;;8.00;99.90;;;;;;4992745;28;20306;-64
2022/01/08 13:03:23;;;;;;;3.10;1.40;;;7.90;99.90;;;;;;4992731;28;20215;-64
2022/01/08 13:05:51;;;;;;;5.23;1.83;;;8.00;99.90;;;;;;4992413;28;20639;-65
2022/01/08 13:08:24;;;;;;;3.27;1.63;;;8.10;99.90;;;;;;5002492;28;20253;-63
2022/01/08 13:10:56;;;;;;;3.23;1.27;;;8.20;99.90;;;;;;5011625;28;20234;-66
2022/01/08 13:13:24;;;;;;;3.53;1.40;;;8.20;99.90;;;;;;5011864;28;20211;-64
2022/01/08 13:15:51;;;;;;;3.77;1.43;;;8.30;99.90;;;;;;5012091;28;20314;-62
2022/01/08 13:18:20;;;;;;;2.57;1.40;;;8.30;99.90;;;;;;5011737;28;20211;-62
2022/01/08 13:20:47;;;;;;;2.30;1.20;;;8.30;99.90;;;;;;5012213;28;20253;-63
2022/01/08 13:23:15;;;;;;;2.70;1.20;;;8.30;99.90;;;;;;5011714;28;20211;-65